Bellevue, Louisiana
Current Conditions -  °F | °C
As of 5:58 AM on Monday 24 Nov 2014 (Local Time) from KBAD Reporting Station
Clear Clear  
Wind Chill: 43°   Ceiling: Unl
Heat Index: 48°   Visibility: 10mi
Dew Point: 39°   Wind: 13mph
Humidity: 71%   Direction: 320°NW
Pressure: 29.88"   Gusts: NA
Location:  32.5391°N, 93.5257°W
Report Text: KBAD 241158Z AUTO 32011KT 10SM CLR 09/04 A2988 RMK AO2 SLP121 70018 T00900039 10150 20090 52027
Loading
Personal Weather Stations






























Interactive Weather Map New forecast layout! Learn more

10-Day Weather Forecast

Advertisements
Track Severe Weather on mobile